Time,TemperatureF,DewpointF,PressureIn,WindDirection,WindDirectionDegrees,WindSpeedMPH,WindSpeedGustMPH,Humidity,HourlyPrecipIn,Conditions,Clouds,dailyrainin,SolarRadiationWatts/m^2,SoftwareType,DateUTC
2013-07-03 00:01:00,75.2,73.7,30.08,ESE,105,2.0,3.0,95,0.00,,,0.16,0,Wunderground v.1.15,2013-07-03 04:01:00,
2013-07-03 00:03:00,75.1,73.6,30.07,ESE,104,3.0,14.0,95,0.00,,,0.16,0,Wunderground v.1.15,2013-07-03 04:03:00,
2013-07-03 00:05:00,75.1,73.6,30.08,ESE,106,3.0,14.0,95,0.00,,,0.16,0,Wunderground v.1.15,2013-07-03 04:05:00,
2013-07-03 00:10:00,75.0,73.5,30.07,ESE,113,3.0,14.0,95,0.00,,,0.16,0,Wunderground v.1.15,2013-07-03 04:10:00,
2013-07-03 00:11:00,75.0,73.5,30.07,ESE,113,3.0,14.0,95,0.00,,,0.16,0,Wunderground v.1.15,2013-07-03 04:11:00,
2013-07-03 00:13:00,75.0,73.5,30.07,ESE,114,3.0,14.0,95,0.00,,,0.16,0,Wunderground v.1.15,2013-07-03 04:13:00,
2013-07-03 00:19:00,74.9,73.4,30.08,ESE,115,2.0,14.0,95,0.00,,,0.16,0,Wunderground v.1.15,2013-07-03 04:19:00,
2013-07-03 00:25:00,74.8,73.3,30.08,ESE,115,2.0,14.0,95,0.00,,,0.16,0,Wunderground v.1.15,2013-07-03 04:25:00,
2013-07-03 00:31:00,74.7,73.2,30.07,ESE,115,2.0,4.0,95,0.00,,,0.16,0,Wunderground v.1.15,2013-07-03 04:31:00,
2013-07-03 00:33:00,74.7,73.2,30.07,ESE,115,2.0,14.0,95,0.00,,,0.16,0,Wunderground v.1.15,2013-07-03 04:33:00,
2013-07-03 00:37:00,74.6,73.1,30.07,ESE,113,2.0,14.0,95,0.00,,,0.00,0,Wunderground v.1.15,2013-07-03 04:37:00,
2013-07-03 00:43:00,74.6,73.1,30.07,ESE,113,2.0,14.0,95,0.00,,,0.00,0,Wunderground v.1.15,2013-07-03 04:43:00,
2013-07-03 00:47:00,74.7,73.2,30.07,ESE,121,2.0,14.0,95,0.00,,,0.00,0,Wunderground v.1.15,2013-07-03 04:47:00,
2013-07-03 00:52:00,74.6,73.1,30.07,ESE,121,2.0,14.0,95,0.00,,,0.00,0,Wunderground v.1.15,2013-07-03 04:52:00,
2013-07-03 00:53:00,74.6,73.1,30.07,ESE,121,2.0,14.0,95,0.00,,,0.00,0,Wunderground v.1.15,2013-07-03 04:53:00,
2013-07-03 00:54:00,74.6,73.1,30.07,ESE,121,2.0,14.0,95,0.00,,,0.00,0,Wunderground v.1.15,2013-07-03 04:54:00,
2013-07-03 01:00:00,74.5,73.0,30.07,ESE,121,2.0,14.0,95,0.00,,,0.00,0,Wunderground v.1.15,2013-07-03 05:00:00,
2013-07-03 01:06:00,74.4,72.9,30.07,ESE,121,3.0,14.0,95,0.00,,,0.00,0,Wunderground v.1.15,2013-07-03 05:06:00,
2013-07-03 01:12:00,74.3,72.8,30.07,ESE,121,3.0,14.0,95,0.00,,,0.00,0,Wunderground v.1.15,2013-07-03 05:12:00,
2013-07-03 01:14:00,74.2,72.7,30.07,ESE,121,2.0,14.0,95,0.00,,,0.00,0,Wunderground v.1.15,2013-07-03 05:14:00,
2013-07-03 01:20:00,74.2,72.7,30.07,ESE,121,0.0,14.0,95,0.00,,,0.00,0,Wunderground v.1.15,2013-07-03 05:20:00,
2013-07-03 01:26:00,74.0,72.5,30.07,ESE,121,0.0,14.0,95,0.00,,,0.00,0,Wunderground v.1.15,2013-07-03 05:26:00,
2013-07-03 01:32:00,73.9,72.4,30.07,ESE,121,1.0,14.0,95,0.00,,,0.00,0,Wunderground v.1.15,2013-07-03 05:32:00,
2013-07-03 01:38:00,73.8,72.3,30.07,ESE,121,1.0,14.0,95,0.00,,,0.00,0,Wunderground v.1.15,2013-07-03 05:38:00,
2013-07-03 01:43:00,73.8,72.3,30.07,ESE,121,1.0,14.0,95,0.00,,,0.00,0,Wunderground v.1.15,2013-07-03 05:43:00,
2013-07-03 01:49:00,73.8,72.6,30.07,ESE,121,1.0,14.0,96,0.00,,,0.00,0,Wunderground v.1.15,2013-07-03 05:49:00,
2013-07-03 01:55:00,73.8,72.6,30.07,ESE,121,1.0,14.0,96,0.00,,,0.00,0,Wunderground v.1.15,2013-07-03 05:55:00,
2013-07-03 02:01:00,73.7,72.5,30.06,ESE,121,1.0,14.0,96,0.00,,,0.00,0,Wunderground v.1.15,2013-07-03 06:01:00,
2013-07-03 02:07:00,73.7,72.5,30.06,ESE,121,0.0,14.0,96,0.00,,,0.00,0,Wunderground v.1.15,2013-07-03 06:07:00,
2013-07-03 02:09:00,73.7,72.5,30.06,ESE,121,0.0,14.0,96,0.00,,,0.00,0,Wunderground v.1.15,2013-07-03 06:09:00,
2013-07-03 02:14:00,73.6,72.4,30.06,ESE,121,0.0,14.0,96,0.00,,,0.00,0,Wunderground v.1.15,2013-07-03 06:14:00,
2013-07-03 02:19:00,73.6,72.4,30.06,ESE,121,0.0,14.0,96,0.00,,,0.00,0,Wunderground v.1.15,2013-07-03 06:19:00,
2013-07-03 02:24:00,73.6,72.4,30.06,ESE,121,0.0,14.0,96,0.00,,,0.00,0,Wunderground v.1.15,2013-07-03 06:24:00,
2013-07-03 02:27:00,73.6,72.4,30.06,ESE,121,0.0,14.0,96,0.00,,,0.00,0,Wunderground v.1.15,2013-07-03 06:27:00,
2013-07-03 02:30:00,73.6,72.4,30.06,ESE,121,0.0,14.0,96,0.00,,,0.00,0,Wunderground v.1.15,2013-07-03 06:30:00,
2013-07-03 02:32:00,73.5,72.3,30.06,ESE,121,0.0,14.0,96,0.00,,,0.00,0,Wunderground v.1.15,2013-07-03 06:32:00,
2013-07-03 02:38:00,73.5,72.3,30.06,ESE,121,0.0,14.0,96,0.00,,,0.00,0,Wunderground v.1.15,2013-07-03 06:38:00,
2013-07-03 02:44:00,73.4,72.2,30.05,ESE,121,0.0,14.0,96,0.00,,,0.00,0,Wunderground v.1.15,2013-07-03 06:44:00,
2013-07-03 02:50:00,73.3,72.1,30.05,ESE,121,0.0,14.0,96,0.00,,,0.00,0,Wunderground v.1.15,2013-07-03 06:50:00,
2013-07-03 02:56:00,73.4,72.2,30.05,ESE,121,0.0,14.0,96,0.00,,,0.00,0,Wunderground v.1.15,2013-07-03 06:56:00,
2013-07-03 03:02:00,73.4,72.2,30.05,ESE,121,0.0,14.0,96,0.00,,,0.00,0,Wunderground v.1.15,2013-07-03 07:02:00,
2013-07-03 03:08:00,73.4,72.2,30.05,ESE,121,0.0,14.0,96,0.00,,,0.00,0,Wunderground v.1.15,2013-07-03 07:08:00,
2013-07-03 03:14:00,73.4,72.2,30.05,ESE,121,0.0,14.0,96,0.00,,,0.00,0,Wunderground v.1.15,2013-07-03 07:14:00,
2013-07-03 03:21:00,73.5,72.3,30.05,ESE,121,0.0,14.0,96,0.00,,,0.00,0,Wunderground v.1.15,2013-07-03 07:21:00,
2013-07-03 03:27:00,73.5,72.3,30.05,ESE,121,0.0,14.0,96,0.00,,,0.00,0,Wunderground v.1.15,2013-07-03 07:27:00,
2013-07-03 03:34:00,73.4,72.2,30.05,ESE,121,0.0,14.0,96,0.00,,,0.00,0,Wunderground v.1.15,2013-07-03 07:34:00,
2013-07-03 03:38:00,73.4,72.2,30.05,ESE,121,0.0,14.0,96,0.00,,,0.00,0,Wunderground v.1.15,2013-07-03 07:38:00,
2013-07-03 03:44:00,73.4,72.2,30.05,ESE,121,0.0,14.0,96,0.00,,,0.00,0,Wunderground v.1.15,2013-07-03 07:44:00,
2013-07-03 03:50:00,73.3,72.1,30.05,ESE,121,0.0,14.0,96,0.00,,,0.00,0,Wunderground v.1.15,2013-07-03 07:50:00,
2013-07-03 03:55:00,73.3,72.1,30.05,ESE,121,0.0,14.0,96,0.00,,,0.00,0,Wunderground v.1.15,2013-07-03 07:55:00,
2013-07-03 04:01:00,73.2,72.3,30.05,ESE,121,0.0,14.0,97,0.00,,,0.00,0,Wunderground v.1.15,2013-07-03 08:01:00,
2013-07-03 04:03:00,73.2,72.3,30.05,ESE,121,0.0,14.0,97,0.00,,,0.00,0,Wunderground v.1.15,2013-07-03 08:03:00,
2013-07-03 04:08:00,73.2,72.3,30.05,ESE,121,0.0,14.0,97,0.00,,,0.00,0,Wunderground v.1.15,2013-07-03 08:08:00,
2013-07-03 04:09:00,73.2,72.3,30.05,ESE,121,0.0,14.0,97,0.00,,,0.00,0,Wunderground v.1.15,2013-07-03 08:09:00,
2013-07-03 04:10:00,73.3,72.4,30.05,ESE,121,0.0,14.0,97,0.00,,,0.00,0,Wunderground v.1.15,2013-07-03 08:10:00,
2013-07-03 04:15:00,73.2,72.3,30.05,ESE,121,0.0,14.0,97,0.00,,,0.00,0,Wunderground v.1.15,2013-07-03 08:15:00,
2013-07-03 04:21:00,73.3,72.4,30.05,ESE,121,1.0,14.0,97,0.00,,,0.00,0,Wunderground v.1.15,2013-07-03 08:21:00,
2013-07-03 04:22:00,73.3,72.4,30.05,ESE,121,1.0,14.0,97,0.00,,,0.00,0,Wunderground v.1.15,2013-07-03 08:22:00,
2013-07-03 04:27:00,73.4,72.5,30.05,ESE,121,1.0,14.0,97,0.00,,,0.00,0,Wunderground v.1.15,2013-07-03 08:27:00,
2013-07-03 04:33:00,73.4,72.5,30.05,ESE,121,2.0,14.0,97,0.00,,,0.00,0,Wunderground v.1.15,2013-07-03 08:33:00,
2013-07-03 04:39:00,73.6,72.7,30.05,ESE,121,2.0,14.0,97,0.00,,,0.00,0,Wunderground v.1.15,2013-07-03 08:39:00,
2013-07-03 04:45:00,73.7,72.8,30.04,ESE,121,2.0,14.0,97,0.00,,,0.00,0,Wunderground v.1.15,2013-07-03 08:45:00,
2013-07-03 04:48:00,73.7,72.8,30.05,ESE,121,2.0,14.0,97,0.00,,,0.00,0,Wunderground v.1.15,2013-07-03 08:48:00,
2013-07-03 04:55:00,73.7,72.8,30.04,ESE,121,3.0,14.0,97,0.00,,,0.00,0,Wunderground v.1.15,2013-07-03 08:55:00,
2013-07-03 04:56:00,73.7,72.8,30.04,ESE,121,3.0,14.0,97,0.00,,,0.00,0,Wunderground v.1.15,2013-07-03 08:56:00,
2013-07-03 05:02:00,73.8,72.9,30.05,ESE,121,3.0,14.0,97,0.00,,,0.00,0,Wunderground v.1.15,2013-07-03 09:02:00,
2013-07-03 05:07:00,73.9,73.0,30.05,ESE,121,3.0,14.0,97,0.00,,,0.00,0,Wunderground v.1.15,2013-07-03 09:07:00,
2013-07-03 05:13:00,74.0,73.1,30.05,ESE,121,4.0,14.0,97,0.00,,,0.00,0,Wunderground v.1.15,2013-07-03 09:13:00,
2013-07-03 05:19:00,74.3,73.4,30.05,ESE,121,4.0,14.0,97,0.00,,,0.00,0,Wunderground v.1.15,2013-07-03 09:19:00,
2013-07-03 05:24:00,74.3,73.4,30.06,SE,128,4.0,14.0,97,0.00,,,0.00,0,Wunderground v.1.15,2013-07-03 09:24:00,
2013-07-03 05:30:00,74.5,73.6,30.06,SE,138,4.0,14.0,97,0.00,,,0.00,0,Wunderground v.1.15,2013-07-03 09:30:00,
2013-07-03 05:36:00,74.7,73.8,30.06,SE,144,4.0,14.0,97,0.00,,,0.00,0,Wunderground v.1.15,2013-07-03 09:36:00,
2013-07-03 05:42:00,74.9,74.0,30.06,SE,145,5.0,14.0,97,0.00,,,0.00,0,Wunderground v.1.15,2013-07-03 09:42:00,
2013-07-03 05:44:00,74.9,74.0,30.06,SE,145,4.0,14.0,97,0.00,,,0.00,0,Wunderground v.1.15,2013-07-03 09:44:00,
2013-07-03 05:50:00,74.9,74.0,30.06,SE,145,3.0,14.0,97,0.00,,,0.00,0,Wunderground v.1.15,2013-07-03 09:50:00,
2013-07-03 05:52:00,75.0,74.1,30.06,SE,145,3.0,14.0,97,0.00,,,0.00,0,Wunderground v.1.15,2013-07-03 09:52:00,
2013-07-03 05:56:00,74.9,74.0,30.06,SE,145,3.0,14.0,97,0.00,,,0.00,0,Wunderground v.1.15,2013-07-03 09:56:00,
2013-07-03 06:02:00,74.8,73.9,30.07,SE,145,3.0,14.0,97,0.00,,,0.00,0,Wunderground v.1.15,2013-07-03 10:02:00,
2013-07-03 06:06:00,74.8,73.9,30.07,SE,145,4.0,14.0,97,0.00,,,0.00,0,Wunderground v.1.15,2013-07-03 10:06:00,
2013-07-03 06:11:00,74.7,73.8,30.06,SE,145,4.0,14.0,97,0.00,,,0.00,0,Wunderground v.1.15,2013-07-03 10:11:00,
2013-07-03 06:15:00,74.9,74.0,30.06,SE,145,5.0,14.0,97,0.00,,,0.00,0,Wunderground v.1.15,2013-07-03 10:15:00,
2013-07-03 06:21:00,75.0,74.1,30.06,SE,143,5.0,14.0,97,0.00,,,0.00,0,Wunderground v.1.15,2013-07-03 10:21:00,
2013-07-03 06:27:00,75.0,74.1,30.06,SE,143,4.0,14.0,97,0.00,,,0.00,0,Wunderground v.1.15,2013-07-03 10:27:00,
2013-07-03 06:32:00,75.1,74.2,30.06,SE,143,5.0,14.0,97,0.00,,,0.00,0,Wunderground v.1.15,2013-07-03 10:32:00,
2013-07-03 06:33:00,75.1,74.2,30.06,SE,143,5.0,14.0,97,0.00,,,0.00,0,Wunderground v.1.15,2013-07-03 10:33:00,
2013-07-03 06:41:00,75.2,74.3,30.07,SSE,150,5.0,14.0,97,0.00,,,0.00,7,Wunderground v.1.15,2013-07-03 10:41:00,
2013-07-03 06:47:00,75.3,74.4,30.07,SSE,152,5.0,14.0,97,0.00,,,0.00,11,Wunderground v.1.15,2013-07-03 10:47:00,
2013-07-03 06:51:00,75.3,74.4,30.07,SSE,149,5.0,14.0,97,0.00,,,0.00,16,Wunderground v.1.15,2013-07-03 10:51:00,
2013-07-03 06:57:00,75.3,74.4,30.07,SSE,148,5.0,14.0,97,0.00,,,0.00,23,Wunderground v.1.15,2013-07-03 10:57:00,
2013-07-03 07:02:00,75.4,74.5,30.08,SSE,148,5.0,14.0,97,0.00,,,0.00,35,Wunderground v.1.15,2013-07-03 11:02:00,
2013-07-03 07:08:00,75.4,74.5,30.07,SSE,147,4.0,14.0,97,0.00,,,0.00,47,Wunderground v.1.15,2013-07-03 11:08:00,
2013-07-03 07:09:00,75.4,74.5,30.07,SSE,147,4.0,14.0,97,0.00,,,0.00,49,Wunderground v.1.15,2013-07-03 11:09:00,
2013-07-03 07:11:00,75.4,74.5,30.08,SSE,147,4.0,14.0,97,0.00,,,0.00,51,Wunderground v.1.15,2013-07-03 11:11:00,
2013-07-03 07:12:00,75.4,74.5,30.07,SSE,147,4.0,14.0,97,0.00,,,0.00,47,Wunderground v.1.15,2013-07-03 11:12:00,
2013-07-03 07:17:00,75.4,74.5,30.08,SSE,147,3.0,14.0,97,0.00,,,0.00,51,Wunderground v.1.15,2013-07-03 11:17:00,
2013-07-03 07:23:00,75.5,74.6,30.08,SSE,147,3.0,14.0,97,0.00,,,0.00,53,Wunderground v.1.15,2013-07-03 11:23:00,
2013-07-03 07:28:00,75.6,74.7,30.08,SSE,147,3.0,14.0,97,0.00,,,0.00,56,Wunderground v.1.15,2013-07-03 11:28:00,
2013-07-03 07:34:00,75.8,74.9,30.08,SE,144,3.0,14.0,97,0.00,,,0.00,58,Wunderground v.1.15,2013-07-03 11:34:00,
2013-07-03 07:37:00,75.9,75.0,30.08,SE,145,4.0,14.0,97,0.00,,,0.00,62,Wunderground v.1.15,2013-07-03 11:37:00,
2013-07-03 07:39:00,76.0,75.1,30.08,SE,144,4.0,14.0,97,0.00,,,0.00,65,Wunderground v.1.15,2013-07-03 11:39:00,
2013-07-03 07:45:00,76.2,75.3,30.09,SE,144,4.0,14.0,97,0.00,,,0.00,79,Wunderground v.1.15,2013-07-03 11:45:00,
2013-07-03 07:49:00,76.3,75.4,30.09,SE,142,4.0,14.0,97,0.00,,,0.00,77,Wunderground v.1.15,2013-07-03 11:49:00,
2013-07-03 07:54:00,76.5,75.6,30.09,SE,146,5.0,14.0,97,0.00,,,0.00,77,Wunderground v.1.15,2013-07-03 11:54:00,
2013-07-03 07:59:00,76.7,75.8,30.09,SSE,147,5.0,14.0,97,0.00,,,0.00,105,Wunderground v.1.15,2013-07-03 11:59:00,
2013-07-03 08:00:00,76.7,75.8,30.09,SSE,147,5.0,14.0,97,0.00,,,0.00,118,Wunderground v.1.15,2013-07-03 12:00:00,
2013-07-03 08:02:00,76.9,75.7,30.09,SSE,150,5.0,14.0,96,0.00,,,0.00,139,Wunderground v.1.15,2013-07-03 12:02:00,
2013-07-03 08:08:00,77.3,76.1,30.09,SSE,158,5.0,14.0,96,0.00,,,0.00,234,Wunderground v.1.15,2013-07-03 12:08:00,
2013-07-03 08:14:00,77.8,76.6,30.09,SSE,161,6.0,14.0,96,0.00,,,0.00,153,Wunderground v.1.15,2013-07-03 12:14:00,
2013-07-03 08:20:00,78.1,76.6,30.09,SSE,155,7.0,14.0,95,0.00,,,0.00,236,Wunderground v.1.15,2013-07-03 12:20:00,
2013-07-03 08:22:00,78.2,76.6,30.09,SSE,161,7.0,14.0,95,0.00,,,0.00,213,Wunderground v.1.15,2013-07-03 12:22:00,
2013-07-03 08:27:00,78.4,76.5,30.10,SSE,152,8.0,14.0,94,0.00,,,0.00,167,Wunderground v.1.15,2013-07-03 12:27:00,
2013-07-03 08:29:00,78.4,76.5,30.10,SSE,156,8.0,14.0,94,0.00,,,0.00,163,Wunderground v.1.15,2013-07-03 12:29:00,
2013-07-03 08:35:00,78.7,76.8,30.10,SSE,165,9.0,14.0,94,0.00,,,0.00,183,Wunderground v.1.15,2013-07-03 12:35:00,
2013-07-03 08:41:00,79.0,76.8,30.10,SSE,155,9.0,14.0,93,0.00,,,0.00,186,Wunderground v.1.15,2013-07-03 12:41:00,
2013-07-03 08:47:00,79.1,76.9,30.10,SSE,150,9.0,14.0,93,0.00,,,0.00,214,Wunderground v.1.15,2013-07-03 12:47:00,
2013-07-03 08:52:00,79.1,76.9,30.10,SSE,157,9.0,14.0,93,0.00,,,0.00,211,Wunderground v.1.15,2013-07-03 12:52:00,
2013-07-03 08:58:00,79.2,76.7,30.10,SSE,152,8.0,14.0,92,0.00,,,0.00,244,Wunderground v.1.15,2013-07-03 12:58:00,
2013-07-03 09:01:00,79.2,76.7,30.10,SSE,161,8.0,14.0,92,0.00,,,0.00,251,Wunderground v.1.15,2013-07-03 13:01:00,
2013-07-03 09:07:00,79.4,76.9,30.10,SSE,159,8.0,14.0,92,0.00,,,0.00,276,Wunderground v.1.15,2013-07-03 13:07:00,
2013-07-03 09:13:00,79.6,76.7,30.10,SSE,167,9.0,14.0,91,0.00,,,0.00,299,Wunderground v.1.15,2013-07-03 13:13:00,
2013-07-03 09:20:00,79.8,76.9,30.10,SSE,162,8.0,14.0,91,0.00,,,0.00,283,Wunderground v.1.15,2013-07-03 13:20:00,
2013-07-03 09:25:00,80.0,77.1,30.10,SSE,159,8.0,14.0,91,0.00,,,0.00,272,Wunderground v.1.15,2013-07-03 13:25:00,
2013-07-03 09:26:00,80.0,77.5,30.10,SSE,159,8.0,14.0,92,0.00,,,0.00,315,Wunderground v.1.15,2013-07-03 13:26:00,
2013-07-03 09:33:00,80.4,77.5,30.10,SSE,160,7.0,14.0,91,0.00,,,0.00,287,Wunderground v.1.15,2013-07-03 13:33:00,
2013-07-03 09:38:00,80.6,77.7,30.10,SSE,167,6.0,14.0,91,0.00,,,0.00,295,Wunderground v.1.15,2013-07-03 13:38:00,
2013-07-03 09:44:00,80.7,77.5,30.10,SSE,159,6.0,14.0,90,0.00,,,0.00,346,Wunderground v.1.15,2013-07-03 13:44:00,
2013-07-03 09:49:00,81.0,77.8,30.10,South,172,7.0,14.0,90,0.00,,,0.00,606,Wunderground v.1.15,2013-07-03 13:49:00,
2013-07-03 09:56:00,81.6,77.7,30.10,SSE,153,8.0,14.0,88,0.00,,,0.00,608,Wunderground v.1.15,2013-07-03 13:56:00,
2013-07-03 10:01:00,82.0,77.7,30.10,SSE,147,9.0,14.0,87,0.00,,,0.00,626,Wunderground v.1.15,2013-07-03 14:01:00,
2013-07-03 10:07:00,82.3,77.7,30.10,SSE,167,10.0,14.0,86,0.00,,,0.00,628,Wunderground v.1.15,2013-07-03 14:07:00,
2013-07-03 10:10:00,82.4,77.8,30.10,SSE,167,10.0,10.0,86,0.00,,,0.00,684,Wunderground v.1.15,2013-07-03 14:10:00,
2013-07-03 10:12:00,82.5,77.5,30.10,SSE,157,9.0,14.0,85,0.00,,,0.00,686,Wunderground v.1.15,2013-07-03 14:12:00,
2013-07-03 10:17:00,82.7,77.4,30.10,SSE,149,10.0,14.0,84,0.00,,,0.00,677,Wunderground v.1.15,2013-07-03 14:17:00,
2013-07-03 10:23:00,82.9,77.6,30.10,SE,143,10.0,14.0,84,0.00,,,0.00,680,Wunderground v.1.15,2013-07-03 14:23:00,
2013-07-03 10:29:00,83.1,77.4,30.10,SSE,165,11.0,14.0,83,0.00,,,0.00,745,Wunderground v.1.15,2013-07-03 14:29:00,
2013-07-03 10:33:00,83.1,77.8,30.10,SE,128,11.0,14.0,84,0.00,,,0.00,795,Wunderground v.1.15,2013-07-03 14:33:00,
2013-07-03 10:39:00,83.4,77.7,30.10,SE,138,10.0,14.0,83,0.00,,,0.00,840,Wunderground v.1.15,2013-07-03 14:39:00,
2013-07-03 10:45:00,84.0,77.9,30.10,SE,146,10.0,14.0,82,0.00,,,0.00,378,Wunderground v.1.15,2013-07-03 14:45:00,
2013-07-03 10:47:00,84.1,77.6,30.10,SE,138,10.0,16.0,81,0.00,,,0.00,849,Wunderground v.1.15,2013-07-03 14:47:00,
2013-07-03 10:52:00,84.0,77.9,30.10,South,179,11.0,14.0,82,0.00,,,0.00,823,Wunderground v.1.15,2013-07-03 14:52:00,
2013-07-03 10:58:00,83.8,77.7,30.10,South,189,11.0,14.0,82,0.00,,,0.00,230,Wunderground v.1.15,2013-07-03 14:58:00,
2013-07-03 11:00:00,83.8,78.1,30.10,SSE,161,11.0,14.0,83,0.00,,,0.00,911,Wunderground v.1.15,2013-07-03 15:00:00,
2013-07-03 11:02:00,83.7,77.2,30.10,SSE,163,11.0,14.0,81,0.00,,,0.00,879,Wunderground v.1.15,2013-07-03 15:02:00,
2013-07-03 11:05:00,83.8,77.0,30.10,SSE,159,12.0,15.0,80,0.00,,,0.00,645,Wunderground v.1.15,2013-07-03 15:05:00,
2013-07-03 11:10:00,84.1,77.3,30.10,SSE,152,12.0,14.0,80,0.00,,,0.00,889,Wunderground v.1.15,2013-07-03 15:10:00,
2013-07-03 11:15:00,84.6,77.7,30.10,South,169,11.0,14.0,80,0.00,,,0.00,911,Wunderground v.1.15,2013-07-03 15:15:00,
2013-07-03 11:20:00,84.8,77.6,30.10,SE,138,9.0,9.0,79,0.00,,,0.00,946,Wunderground v.1.15,2013-07-03 15:20:00,
2013-07-03 11:26:00,85.0,77.4,30.10,South,184,9.0,16.0,78,0.00,,,0.00,946,Wunderground v.1.15,2013-07-03 15:26:00,
2013-07-03 11:31:00,84.7,77.8,30.10,South,177,12.0,14.0,80,0.00,,,0.00,304,Wunderground v.1.15,2013-07-03 15:31:00,
2013-07-03 11:32:00,84.7,77.1,30.10,South,176,12.0,17.0,78,0.00,,,0.00,315,Wunderground v.1.15,2013-07-03 15:32:00,
2013-07-03 11:37:00,84.5,77.3,30.10,SSE,167,14.0,17.0,79,0.00,,,0.00,998,Wunderground v.1.15,2013-07-03 15:37:00,
2013-07-03 11:43:00,84.9,77.7,30.10,SSE,154,14.0,18.0,79,0.00,,,0.00,283,Wunderground v.1.15,2013-07-03 15:43:00,
2013-07-03 11:48:00,85.0,77.4,30.09,SSE,155,14.0,18.0,78,0.00,,,0.00,243,Wunderground v.1.15,2013-07-03 15:48:00,
2013-07-03 11:49:00,85.0,77.4,30.09,SSE,154,13.0,18.0,78,0.00,,,0.00,264,Wunderground v.1.15,2013-07-03 15:49:00,
2013-07-03 11:52:00,85.0,77.0,30.09,SSE,152,12.0,14.0,77,0.00,,,0.00,318,Wunderground v.1.15,2013-07-03 15:52:00,
2013-07-03 11:53:00,85.0,77.0,30.09,SE,138,12.0,14.0,77,0.00,,,0.00,874,Wunderground v.1.15,2013-07-03 15:53:00,
2013-07-03 12:00:00,85.4,77.4,30.09,SSE,159,12.0,14.0,77,0.00,,,0.00,947,Wunderground v.1.15,2013-07-03 16:00:00,
2013-07-03 12:03:00,85.4,77.8,30.09,SSE,167,13.0,14.0,78,0.00,,,0.00,947,Wunderground v.1.15,2013-07-03 16:03:00,
2013-07-03 12:09:00,85.3,77.7,30.09,South,172,12.0,14.0,78,0.00,,,0.00,200,Wunderground v.1.15,2013-07-03 16:09:00,
2013-07-03 12:14:00,85.3,77.7,30.09,SSE,161,12.0,18.0,78,0.00,,,0.00,675,Wunderground v.1.15,2013-07-03 16:14:00,
2013-07-03 12:22:00,85.6,77.9,30.09,SSE,154,12.0,18.0,78,0.00,,,0.00,944,Wunderground v.1.15,2013-07-03 16:22:00,
2013-07-03 12:28:00,85.7,77.3,30.09,SSE,168,13.0,18.0,76,0.00,,,0.00,269,Wunderground v.1.15,2013-07-03 16:28:00,
2013-07-03 12:34:00,85.8,77.8,30.08,South,169,11.0,14.0,77,0.00,,,0.00,995,Wunderground v.1.15,2013-07-03 16:34:00,
2013-07-03 12:39:00,86.2,77.7,30.08,ESE,117,11.0,14.0,76,0.00,,,0.00,1143,Wunderground v.1.15,2013-07-03 16:39:00,
2013-07-03 12:44:00,86.9,77.6,30.08,SSE,161,10.0,14.0,74,0.00,,,0.00,1062,Wunderground v.1.15,2013-07-03 16:44:00,
2013-07-03 12:50:00,86.6,78.1,30.08,South,171,10.0,10.0,76,0.00,,,0.00,394,Wunderground v.1.15,2013-07-03 16:50:00,
2013-07-03 12:56:00,86.2,77.7,30.08,SE,138,9.0,14.0,76,0.00,,,0.00,330,Wunderground v.1.15,2013-07-03 16:56:00,
2013-07-03 13:02:00,86.1,78.0,30.08,SSE,153,10.0,14.0,77,0.00,,,0.00,127,Wunderground v.1.15,2013-07-03 17:02:00,
2013-07-03 13:08:00,83.2,77.9,30.08,SSW,198,17.0,26.0,84,1.45,,,0.14,171,Wunderground v.1.15,2013-07-03 17:08:00,
2013-07-03 13:13:00,81.0,76.1,30.08,SSW,207,15.0,17.0,85,0.13,,,0.16,229,Wunderground v.1.15,2013-07-03 17:13:00,
2013-07-03 13:19:00,80.2,75.3,30.08,SSW,202,6.0,17.0,85,0.06,,,0.16,253,Wunderground v.1.15,2013-07-03 17:19:00,
2013-07-03 13:25:00,80.4,76.2,30.09,SW,223,4.0,14.0,87,0.04,,,0.16,260,Wunderground v.1.15,2013-07-03 17:25:00,
2013-07-03 13:32:00,80.5,76.3,30.09,SW,223,3.0,14.0,87,0.00,,,0.16,142,Wunderground v.1.15,2013-07-03 17:32:00,
2013-07-03 13:38:00,80.6,76.4,30.08,SSW,211,3.0,14.0,87,0.00,,,0.16,204,Wunderground v.1.15,2013-07-03 17:38:00,
2013-07-03 13:44:00,80.7,76.1,30.07,SSE,157,4.0,14.0,86,0.00,,,0.16,244,Wunderground v.1.15,2013-07-03 17:44:00,
2013-07-03 13:50:00,80.8,76.6,30.08,SE,146,4.0,14.0,87,0.00,,,0.16,221,Wunderground v.1.15,2013-07-03 17:50:00,
2013-07-03 13:56:00,81.1,77.2,30.09,SE,145,3.0,14.0,88,0.00,,,0.16,62,Wunderground v.1.15,2013-07-03 17:56:00,
2013-07-03 14:02:00,81.1,76.5,30.10,South,171,5.0,14.0,86,0.00,,,0.16,100,Wunderground v.1.15,2013-07-03 18:02:00,
2013-07-03 14:08:00,81.2,76.6,30.09,South,186,5.0,14.0,86,0.00,,,0.16,53,Wunderground v.1.15,2013-07-03 18:08:00,
2013-07-03 14:14:00,79.8,74.5,30.10,SSE,159,13.0,24.0,84,0.89,,,0.20,26,Wunderground v.1.15,2013-07-03 18:14:00,
2013-07-03 14:19:00,77.9,73.4,30.08,South,179,16.0,27.0,86,0.69,,,0.34,60,Wunderground v.1.15,2013-07-03 18:19:00,
2013-07-03 14:25:00,76.8,73.3,30.07,SSE,149,10.0,27.0,89,0.19,,,0.36,72,Wunderground v.1.15,2013-07-03 18:25:00,
2013-07-03 14:31:00,76.1,73.0,30.07,SSE,149,5.0,27.0,90,0.11,,,0.37,84,Wunderground v.1.15,2013-07-03 18:31:00,
2013-07-03 14:36:00,76.1,73.6,30.07,SSE,155,3.0,27.0,92,0.10,,,0.38,86,Wunderground v.1.15,2013-07-03 18:36:00,
2013-07-03 14:42:00,76.2,74.0,30.06,SSE,152,4.0,27.0,93,0.06,,,0.38,86,Wunderground v.1.15,2013-07-03 18:42:00,
2013-07-03 14:47:00,76.4,74.2,30.06,SSE,152,4.0,27.0,93,0.04,,,0.38,84,Wunderground v.1.15,2013-07-03 18:47:00,
2013-07-03 14:52:00,76.8,74.9,30.06,SSE,155,4.0,27.0,94,0.00,,,0.38,97,Wunderground v.1.15,2013-07-03 18:52:00,
2013-07-03 14:57:00,77.0,75.1,30.05,SSE,155,3.0,27.0,94,0.00,,,0.38,116,Wunderground v.1.15,2013-07-03 18:57:00,
2013-07-03 15:03:00,77.1,75.2,30.05,SSE,155,1.0,27.0,94,0.00,,,0.38,109,Wunderground v.1.15,2013-07-03 19:03:00,
2013-07-03 15:10:00,77.8,76.3,30.08,South,174,2.0,27.0,95,0.47,,,0.39,39,Wunderground v.1.15,2013-07-03 19:10:00,
2013-07-03 15:16:00,78.5,76.9,30.07,South,171,10.0,27.0,95,2.30,,,0.54,65,Wunderground v.1.15,2013-07-03 19:16:00,
2013-07-03 15:21:00,78.6,76.7,30.07,SE,128,14.0,27.0,94,0.59,,,0.60,84,Wunderground v.1.15,2013-07-03 19:21:00,
2013-07-03 15:28:00,76.3,73.1,30.06,SE,128,14.0,27.0,90,0.47,,,0.64,72,Wunderground v.1.15,2013-07-03 19:28:00,
2013-07-03 15:33:00,75.6,72.5,30.07,SE,128,12.0,27.0,90,0.15,,,0.65,77,Wunderground v.1.15,2013-07-03 19:33:00,
2013-07-03 15:39:00,75.1,72.3,30.07,ESE,111,9.0,27.0,91,0.08,,,0.65,84,Wunderground v.1.15,2013-07-03 19:39:00,
2013-07-03 15:44:00,74.8,72.0,30.06,SE,128,6.0,27.0,91,0.05,,,0.65,86,Wunderground v.1.15,2013-07-03 19:44:00,
2013-07-03 15:49:00,74.8,72.3,30.06,ESE,113,5.0,27.0,92,0.05,,,0.66,76,Wunderground v.1.15,2013-07-03 19:49:00,
2013-07-03 15:55:00,75.0,72.8,30.06,ESE,108,6.0,27.0,93,0.05,,,0.66,69,Wunderground v.1.15,2013-07-03 19:55:00,
2013-07-03 16:01:00,75.5,73.7,30.06,ESE,117,6.0,27.0,94,0.04,,,0.66,79,Wunderground v.1.15,2013-07-03 20:01:00,
2013-07-03 16:07:00,75.7,73.8,30.06,ESE,106,5.0,27.0,94,0.00,,,0.66,98,Wunderground v.1.15,2013-07-03 20:07:00,
2013-07-03 16:12:00,76.0,74.5,30.06,ESE,121,5.0,27.0,95,0.00,,,0.66,123,Wunderground v.1.15,2013-07-03 20:12:00,
2013-07-03 16:18:00,76.2,74.7,30.06,ESE,120,4.0,27.0,95,0.00,,,0.66,172,Wunderground v.1.15,2013-07-03 20:18:00,
2013-07-03 16:23:00,76.4,74.9,30.05,SE,133,5.0,27.0,95,0.00,,,0.66,206,Wunderground v.1.15,2013-07-03 20:23:00,
2013-07-03 16:28:00,76.9,75.4,30.05,ESE,121,5.0,27.0,95,0.00,,,0.66,251,Wunderground v.1.15,2013-07-03 20:28:00,
2013-07-03 16:33:00,77.3,75.8,30.05,ESE,119,5.0,27.0,95,0.00,,,0.66,302,Wunderground v.1.15,2013-07-03 20:33:00,
2013-07-03 16:39:00,77.6,75.7,30.05,SE,128,4.0,27.0,94,0.00,,,0.66,371,Wunderground v.1.15,2013-07-03 20:39:00,
2013-07-03 16:44:00,78.3,76.4,30.05,SE,128,4.0,27.0,94,0.00,,,0.66,404,Wunderground v.1.15,2013-07-03 20:44:00,
2013-07-03 16:51:00,79.0,77.1,30.04,SE,128,3.0,27.0,94,0.00,,,0.66,371,Wunderground v.1.15,2013-07-03 20:51:00,
2013-07-03 16:56:00,79.4,77.2,30.04,SE,128,2.0,27.0,93,0.00,,,0.66,345,Wunderground v.1.15,2013-07-03 20:56:00,
2013-07-03 17:02:00,79.6,77.1,30.04,ESE,119,3.0,27.0,92,0.00,,,0.66,322,Wunderground v.1.15,2013-07-03 21:02:00,
2013-07-03 17:07:00,79.9,77.4,30.05,SE,128,4.0,27.0,92,0.00,,,0.66,329,Wunderground v.1.15,2013-07-03 21:07:00,
2013-07-03 17:12:00,80.3,77.8,30.05,SE,128,5.0,27.0,92,0.00,,,0.66,359,Wunderground v.1.15,2013-07-03 21:12:00,
2013-07-03 17:18:00,80.8,78.3,30.05,SE,128,5.0,27.0,92,0.00,,,0.66,366,Wunderground v.1.15,2013-07-03 21:18:00,
2013-07-03 17:23:00,81.1,78.2,30.05,SE,128,5.0,27.0,91,0.00,,,0.66,283,Wunderground v.1.15,2013-07-03 21:23:00,
2013-07-03 17:29:00,81.4,78.5,30.05,SE,128,5.0,27.0,91,0.00,,,0.66,320,Wunderground v.1.15,2013-07-03 21:29:00,
2013-07-03 17:34:00,81.6,78.4,30.05,ESE,121,4.0,27.0,90,0.00,,,0.66,255,Wunderground v.1.15,2013-07-03 21:34:00,
2013-07-03 17:39:00,81.7,78.5,30.05,SE,128,4.0,27.0,90,0.00,,,0.66,218,Wunderground v.1.15,2013-07-03 21:39:00,
2013-07-03 17:45:00,81.9,78.7,30.05,SE,133,4.0,27.0,90,0.00,,,0.66,193,Wunderground v.1.15,2013-07-03 21:45:00,
2013-07-03 17:50:00,81.9,78.3,30.05,SE,133,4.0,27.0,89,0.00,,,0.66,174,Wunderground v.1.15,2013-07-03 21:50:00,
2013-07-03 17:56:00,82.0,78.1,30.05,SE,138,5.0,27.0,88,0.00,,,0.66,160,Wunderground v.1.15,2013-07-03 21:56:00,
2013-07-03 18:01:00,82.0,77.7,30.06,SE,133,6.0,27.0,87,0.00,,,0.66,151,Wunderground v.1.15,2013-07-03 22:01:00,
2013-07-03 18:06:00,82.0,77.4,30.06,SE,138,6.0,27.0,86,0.00,,,0.66,142,Wunderground v.1.15,2013-07-03 22:06:00,
2013-07-03 18:11:00,82.0,77.4,30.06,SE,142,6.0,27.0,86,0.00,,,0.66,104,Wunderground v.1.15,2013-07-03 22:11:00,
2013-07-03 18:17:00,82.1,77.5,30.07,SE,124,7.0,27.0,86,0.00,,,0.67,28,Wunderground v.1.15,2013-07-03 22:17:00,
2013-07-03 18:22:00,80.9,76.3,30.06,SE,138,10.0,27.0,86,0.41,,,0.72,26,Wunderground v.1.15,2013-07-03 22:22:00,
2013-07-03 18:28:00,79.1,75.6,30.06,SSE,158,10.0,27.0,89,0.12,,,0.73,49,Wunderground v.1.15,2013-07-03 22:28:00,
2013-07-03 18:33:00,78.6,75.4,30.06,SE,138,6.0,27.0,90,0.09,,,0.73,91,Wunderground v.1.15,2013-07-03 22:33:00,
2013-07-03 18:39:00,78.7,75.8,30.06,SSE,148,8.0,27.0,91,0.05,,,0.73,90,Wunderground v.1.15,2013-07-03 22:39:00,
2013-07-03 18:45:00,78.8,75.9,30.06,SSE,147,8.0,27.0,91,0.00,,,0.73,91,Wunderground v.1.15,2013-07-03 22:45:00,
2013-07-03 18:51:00,79.0,76.1,30.06,SSE,148,6.0,27.0,91,0.00,,,0.73,90,Wunderground v.1.15,2013-07-03 22:51:00,
2013-07-03 18:58:00,79.0,76.5,30.06,SE,142,4.0,27.0,92,0.00,,,0.73,86,Wunderground v.1.15,2013-07-03 22:58:00,
2013-07-03 19:04:00,79.0,76.5,30.05,SE,138,4.0,27.0,92,0.00,,,0.73,81,Wunderground v.1.15,2013-07-03 23:04:00,
2013-07-03 19:09:00,79.1,76.6,30.05,SE,138,5.0,27.0,92,0.00,,,0.73,77,Wunderground v.1.15,2013-07-03 23:09:00,
2013-07-03 19:14:00,79.1,76.6,30.05,SE,138,4.0,27.0,92,0.00,,,0.73,74,Wunderground v.1.15,2013-07-03 23:14:00,
2013-07-03 19:20:00,79.2,77.0,30.06,SE,138,4.0,4.0,93,0.00,,,0.73,72,Wunderground v.1.15,2013-07-03 23:20:00,
2013-07-03 19:25:00,79.1,76.9,30.06,SE,138,4.0,27.0,93,0.00,,,0.73,69,Wunderground v.1.15,2013-07-03 23:25:00,
2013-07-03 19:30:00,79.1,76.6,30.06,SE,138,3.0,27.0,92,0.00,,,0.73,62,Wunderground v.1.15,2013-07-03 23:30:00,
2013-07-03 19:36:00,79.2,76.7,30.07,SE,138,4.0,27.0,92,0.00,,,0.73,53,Wunderground v.1.15,2013-07-03 23:36:00,
2013-07-03 19:41:00,79.1,76.6,30.07,SE,138,4.0,27.0,92,0.00,,,0.73,47,Wunderground v.1.15,2013-07-03 23:41:00,
2013-07-03 19:47:00,79.1,76.6,30.07,SE,143,5.0,27.0,92,0.00,,,0.73,35,Wunderground v.1.15,2013-07-03 23:47:00,
2013-07-03 19:52:00,79.0,76.5,30.07,SE,143,5.0,27.0,92,0.00,,,0.73,21,Wunderground v.1.15,2013-07-03 23:52:00,
2013-07-03 19:57:00,79.1,76.6,30.07,SE,144,5.0,27.0,92,0.00,,,0.73,23,Wunderground v.1.15,2013-07-03 23:57:00,
2013-07-03 20:02:00,79.0,76.1,30.07,SE,144,5.0,27.0,91,0.00,,,0.73,19,Wunderground v.1.15,2013-07-04 00:02:00,
2013-07-03 20:08:00,78.9,76.0,30.08,SE,144,3.0,27.0,91,0.00,,,0.73,12,Wunderground v.1.15,2013-07-04 00:08:00,
2013-07-03 20:15:00,78.9,76.4,30.08,SE,143,3.0,27.0,92,0.00,,,0.73,0,Wunderground v.1.15,2013-07-04 00:15:00,
2013-07-03 20:21:00,79.3,76.8,30.09,SW,231,7.0,27.0,92,0.00,,,0.73,0,Wunderground v.1.15,2013-07-04 00:21:00,
2013-07-03 20:27:00,79.0,75.5,30.09,SW,231,16.0,27.0,89,0.00,,,0.73,0,Wunderground v.1.15,2013-07-04 00:27:00,
2013-07-03 20:33:00,78.8,74.9,30.10,SSW,202,17.0,27.0,88,1.10,,,0.76,0,Wunderground v.1.15,2013-07-04 00:33:00,
2013-07-03 20:38:00,78.1,74.6,30.10,SSW,195,17.0,27.0,89,0.20,,,0.83,0,Wunderground v.1.15,2013-07-04 00:38:00,
2013-07-03 20:45:00,76.9,74.1,30.10,SSW,195,15.0,27.0,91,0.29,,,0.89,0,Wunderground v.1.15,2013-07-04 00:45:00,
2013-07-03 20:50:00,76.2,73.7,30.10,SE,146,13.0,13.0,92,0.20,,,0.90,0,Wunderground v.1.15,2013-07-04 00:50:00,
2013-07-03 20:55:00,75.3,72.8,30.10,SE,143,12.0,27.0,92,0.51,,,0.94,0,Wunderground v.1.15,2013-07-04 00:55:00,
2013-07-03 21:02:00,74.5,72.0,30.10,SE,146,8.0,27.0,92,0.35,,,0.99,0,Wunderground v.1.15,2013-07-04 01:02:00,
2013-07-03 21:07:00,73.9,71.7,30.09,SE,128,5.0,27.0,93,0.10,,,0.99,0,Wunderground v.1.15,2013-07-04 01:07:00,
2013-07-03 21:14:00,73.6,71.8,30.09,SE,133,4.0,27.0,94,0.05,,,0.99,0,Wunderground v.1.15,2013-07-04 01:14:00,
2013-07-03 21:20:00,73.3,71.5,30.09,SE,124,3.0,3.0,94,0.00,,,0.99,0,Wunderground v.1.15,2013-07-04 01:20:00,
2013-07-03 21:25:00,73.2,71.4,30.10,SE,128,1.0,24.0,94,0.00,,,0.99,0,Wunderground v.1.15,2013-07-04 01:25:00,
2013-07-03 21:30:00,73.1,71.3,30.10,SE,124,0.0,24.0,94,0.00,,,0.99,0,Wunderground v.1.15,2013-07-04 01:30:00,
2013-07-03 21:36:00,73.1,71.6,30.10,SE,124,2.0,24.0,95,0.00,,,0.99,0,Wunderground v.1.15,2013-07-04 01:36:00,
2013-07-03 21:41:00,73.0,71.5,30.10,SE,133,4.0,24.0,95,0.00,,,0.99,0,Wunderground v.1.15,2013-07-04 01:41:00,
2013-07-03 21:47:00,73.2,71.7,30.10,SSE,163,5.0,24.0,95,0.00,,,0.99,0,Wunderground v.1.15,2013-07-04 01:47:00,
2013-07-03 21:52:00,73.6,72.1,30.10,SSE,157,6.0,24.0,95,0.00,,,0.99,0,Wunderground v.1.15,2013-07-04 01:52:00,
2013-07-03 21:57:00,73.6,72.1,30.10,SE,138,5.0,24.0,95,0.00,,,0.99,0,Wunderground v.1.15,2013-07-04 01:57:00,
2013-07-03 22:03:00,73.6,72.1,30.10,SE,128,4.0,24.0,95,0.00,,,0.99,0,Wunderground v.1.15,2013-07-04 02:03:00,
2013-07-03 22:08:00,73.8,72.6,30.11,SE,128,3.0,24.0,96,0.00,,,0.99,0,Wunderground v.1.15,2013-07-04 02:08:00,
2013-07-03 22:14:00,74.2,73.0,30.11,SE,133,4.0,20.0,96,0.00,,,0.99,0,Wunderground v.1.15,2013-07-04 02:14:00,
2013-07-03 22:20:00,74.2,72.7,30.11,SE,138,4.0,4.0,95,0.00,,,0.99,0,Wunderground v.1.15,2013-07-04 02:20:00,
2013-07-03 22:25:00,74.2,72.7,30.11,SE,138,3.0,20.0,95,0.00,,,0.99,0,Wunderground v.1.15,2013-07-04 02:25:00,
2013-07-03 22:32:00,74.1,72.6,30.11,SE,138,3.0,20.0,95,0.00,,,0.99,0,Wunderground v.1.15,2013-07-04 02:32:00,
2013-07-03 22:38:00,74.1,72.9,30.12,SE,138,2.0,20.0,96,0.00,,,0.99,0,Wunderground v.1.15,2013-07-04 02:38:00,
2013-07-03 22:44:00,74.2,73.0,30.12,SE,138,3.0,20.0,96,0.00,,,0.99,0,Wunderground v.1.15,2013-07-04 02:44:00,
2013-07-03 22:49:00,75.0,73.8,30.12,SSE,165,4.0,20.0,96,0.00,,,0.99,0,Wunderground v.1.15,2013-07-04 02:49:00,
2013-07-03 22:54:00,75.3,74.1,30.12,South,177,4.0,20.0,96,0.00,,,0.99,0,Wunderground v.1.15,2013-07-04 02:54:00,
2013-07-03 23:00:00,75.5,74.3,30.12,South,173,5.0,5.0,96,0.00,,,0.99,0,Wunderground v.1.15,2013-07-04 03:00:00,
2013-07-03 23:05:00,75.2,73.7,30.11,South,169,3.0,8.0,95,0.00,,,0.99,0,Wunderground v.1.15,2013-07-04 03:05:00,
2013-07-03 23:11:00,74.9,73.4,30.12,South,169,1.0,2.0,95,0.00,,,0.99,0,Wunderground v.1.15,2013-07-04 03:11:00,
2013-07-03 23:17:00,74.7,73.2,30.12,South,169,0.0,8.0,95,0.00,,,0.99,0,Wunderground v.1.15,2013-07-04 03:17:00,
2013-07-03 23:22:00,74.6,73.1,30.12,South,169,1.0,8.0,95,0.00,,,0.99,0,Wunderground v.1.15,2013-07-04 03:22:00,
2013-07-03 23:27:00,74.5,73.0,30.12,South,169,2.0,8.0,95,0.00,,,0.99,0,Wunderground v.1.15,2013-07-04 03:27:00,
2013-07-03 23:34:00,74.4,73.2,30.12,South,169,2.0,8.0,96,0.00,,,0.99,0,Wunderground v.1.15,2013-07-04 03:34:00,
2013-07-03 23:39:00,74.4,73.2,30.12,South,169,3.0,8.0,96,0.00,,,0.99,0,Wunderground v.1.15,2013-07-04 03:39:00,
2013-07-03 23:44:00,74.3,73.1,30.12,South,169,3.0,8.0,96,0.00,,,0.99,0,Wunderground v.1.15,2013-07-04 03:44:00,
2013-07-03 23:50:00,74.3,73.1,30.12,South,169,3.0,8.0,96,0.00,,,0.99,0,Wunderground v.1.15,2013-07-04 03:50:00,
2013-07-03 23:55:00,74.2,73.0,30.12,South,169,3.0,8.0,96,0.00,,,0.99,0,Wunderground v.1.15,2013-07-04 03:55:00,